createdAt,value
2022-10-17T01:01:18.144Z,19.81999969
2022-10-17T01:01:55.339Z,19.81999969
2022-10-17T01:03:57.848Z,19.37999916
2022-10-17T07:34:32.969Z,20.87999916
2022-10-17T07:35:12.783Z,20.85000038
2022-10-17T07:36:10.915Z,20.67000008
2022-10-17T07:37:09.449Z,20.40999985
2022-10-17T07:39:01.471Z,19.90999985
2022-10-17T07:39:56.705Z,19.75
2022-10-17T07:40:54.391Z,19.57999992
2022-10-17T07:41:47.409Z,19.36000061
2022-10-17T07:42:49.092Z,19.19000053
2022-10-17T07:43:42.499Z,19.04000092
2022-10-17T07:44:41.394Z,18.97999954
2022-10-17T07:45:36.740Z,18.87999916
2022-10-17T07:46:34.700Z,18.79999924
2022-10-17T07:48:46.573Z,18.63999939
2022-10-17T19:33:39.781Z,20.96999931
2022-10-17T19:34:22.377Z,20.95000076
2022-10-17T19:35:22.504Z,20.79000092
2022-10-17T19:36:22.372Z,20.47999954
2022-10-17T19:37:17.833Z,20.22999954
2022-10-17T19:38:18.779Z,19.90999985
2022-10-17T19:40:19.708Z,19.45000076
2022-10-17T19:41:15.086Z,19.27000046
2022-10-17T19:42:16.493Z,19.07999992
2022-10-17T19:43:17.850Z,18.88999939
2022-10-17T19:44:17.046Z,18.75
2022-10-17T19:45:12.327Z,18.63999939
2022-10-17T19:46:13.319Z,18.53000069
2022-10-17T19:47:08.310Z,18.39999962
2022-10-17T19:48:04.562Z,18.29999924
2022-10-17T19:50:05.873Z,18.13999939
2022-10-17T19:51:09.830Z,18.05999947
2022-10-17T19:52:03.763Z,18
2022-10-17T19:53:07.595Z,17.92000008
2022-10-17T19:59:31.531Z,18.86000061
2022-10-17T20:00:33.384Z,18.79000092
2022-10-17T20:01:28.004Z,18.68000031
2022-10-17T20:02:33.015Z,18.51000023
2022-10-17T20:03:27.468Z,18.34000015
2022-10-17T20:04:25.657Z,18.22999954
2022-10-17T20:05:23.687Z,18.12000084
2022-10-17T20:05:28.267Z,18.12000084
2022-10-17T20:06:22.966Z,18.03000069
2022-10-17T20:07:14.973Z,17.94000053
2022-10-17T20:28:26.860Z,19.97999954
2022-10-17T20:29:26.160Z,19.96999931
2022-10-17T20:30:31.434Z,19.78000069
2022-10-17T20:31:30.500Z,19.52000046
2022-10-17T20:32:29.923Z,19.27000046
2022-10-17T20:34:27.154Z,18.78000069
2022-10-17T20:35:22.679Z,18.62000084
2022-10-17T20:36:27.821Z,18.47999954
2022-10-17T20:37:22.120Z,18.34000015
2022-10-17T20:38:26.156Z,18.18000031
2022-10-17T20:39:22.571Z,18.06999969
2022-10-17T20:40:35.337Z,17.95000076
2022-10-17T20:40:35.607Z,17.95000076
2022-10-17T20:41:23.974Z,17.86000061
2022-10-17T20:42:35.056Z,17.81999969
2022-10-17T20:44:41.921Z,17.62999916
2022-10-17T20:46:22.834Z,17.53000069
2022-10-17T20:46:29.441Z,17.53000069
2022-10-17T20:46:35.419Z,17.53000069
2022-10-17T20:47:01.192Z,17.52000046
2022-10-17T20:47:01.907Z,17.52000046
2022-10-17T20:47:02.055Z,17.52000046
2022-10-17T20:47:52.152Z,17.57999992
2022-10-17T20:48:50.721Z,17.60000038
2022-10-17T20:49:53.493Z,17.55999947
2022-10-17T20:50:49.859Z,17.5
2022-10-17T20:55:11.797Z,17.96999931
2022-10-17T20:58:25.604Z,18.63999939
2022-10-17T20:59:38.277Z,18.77000046
2022-10-17T21:00:37.976Z,18.68000031
2022-10-17T21:01:32.625Z,18.53000069
2022-10-17T21:02:37.826Z,18.34000015
2022-10-17T21:03:33.164Z,18.14999962
2022-10-17T21:04:45.873Z,18.01000023
2022-10-17T21:04:46.682Z,18.01000023
2022-10-17T21:04:47.347Z,18.01000023
2022-10-17T21:05:31.675Z,17.90999985
2022-10-17T23:13:20.848Z,20.06999969
2022-10-17T23:18:50.108Z,19.63999939
2022-10-17T23:39:38.092Z,20.13999939
2022-10-17T23:41:39.379Z,19.95000076
2022-10-17T23:42:39.048Z,19.69000053
2022-10-17T23:43:33.552Z,19.37999916
2022-10-17T23:45:26.348Z,18.90999985
2022-10-17T23:46:24.286Z,18.70999908
2022-10-17T23:47:18.245Z,18.53000069
2022-10-17T23:48:17.885Z,18.36000061
2022-10-17T23:50:18.496Z,18.04999924
2022-10-17T23:51:12.067Z,17.93000031
2022-10-17T23:52:11.007Z,17.84000015
2022-10-17T23:53:05.079Z,17.73999977
